createdAt,value
2018-05-27T00:01:35.816Z,72.33
2018-05-27T00:04:04.400Z,72.92
2018-05-27T00:06:32.904Z,72.75
2018-05-27T00:09:01.431Z,73.39
2018-05-27T00:11:30.007Z,73.60
2018-05-27T00:13:58.540Z,74.14
2018-05-27T00:16:27.061Z,74.21
2018-05-27T00:18:55.553Z,74.12
2018-05-27T00:21:24.080Z,74.11
2018-05-27T00:23:52.572Z,74.49
2018-05-27T00:26:21.400Z,74.91
2018-05-27T00:28:49.912Z,75.09
2018-05-27T00:31:18.453Z,75.10
2018-05-27T00:33:46.940Z,74.99
2018-05-27T00:36:15.469Z,74.29
2018-05-27T00:38:44.008Z,74.10
2018-05-27T00:41:12.469Z,74.11
2018-05-27T00:43:40.997Z,73.86
2018-05-27T00:46:09.480Z,73.85
2018-05-27T00:48:38.001Z,73.81
2018-05-27T00:51:06.490Z,73.83
2018-05-27T00:53:46.632Z,73.80
2018-05-27T00:56:15.097Z,73.93
2018-05-27T00:58:43.625Z,74.17
2018-05-27T01:01:12.148Z,74.46
2018-05-27T01:03:40.690Z,74.76
2018-05-27T01:06:09.216Z,74.88
2018-05-27T01:08:37.756Z,74.82
2018-05-27T01:11:06.327Z,74.58
2018-05-27T01:13:34.884Z,74.76
2018-05-27T01:16:03.381Z,74.76
2018-05-27T01:18:31.935Z,74.82
2018-05-27T01:21:00.421Z,74.32
2018-05-27T01:23:29.011Z,73.96
2018-05-27T01:25:57.548Z,73.81
2018-05-27T01:28:26.084Z,73.47
2018-05-27T01:30:54.656Z,73.64
2018-05-27T01:33:23.172Z,73.20
2018-05-27T01:35:51.706Z,72.95
2018-05-27T01:38:20.237Z,73.17
2018-05-27T01:40:48.736Z,73.09
2018-05-27T01:43:17.249Z,73.03
2018-05-27T01:45:45.784Z,72.72
2018-05-27T01:48:14.288Z,72.79
2018-05-27T01:50:42.830Z,72.96
2018-05-27T01:53:11.381Z,73.08
2018-05-27T01:55:39.904Z,73.28
2018-05-27T01:58:08.446Z,73.01
2018-05-27T02:00:36.968Z,72.89
2018-05-27T02:03:05.501Z,72.67
2018-05-27T02:05:33.996Z,72.89
2018-05-27T02:08:02.529Z,72.39
2018-05-27T02:10:31.060Z,72.49
2018-05-27T02:12:59.568Z,72.36
2018-05-27T02:15:28.100Z,72.37
2018-05-27T02:17:56.584Z,72.52
2018-05-27T02:20:25.073Z,73.00
2018-05-27T02:22:53.626Z,72.09
2018-05-27T02:25:22.120Z,71.81
2018-05-27T02:27:50.737Z,71.84
2018-05-27T02:30:19.221Z,71.49
2018-05-27T02:32:47.716Z,71.59
2018-05-27T02:35:16.272Z,71.31
2018-05-27T02:37:44.756Z,70.99
2018-05-27T02:40:13.280Z,71.06
2018-05-27T02:42:41.792Z,71.61
2018-05-27T02:45:10.336Z,71.61
2018-05-27T02:47:38.825Z,71.90
2018-05-27T02:50:07.438Z,72.07
2018-05-27T02:52:35.976Z,71.74
2018-05-27T02:55:04.520Z,72.00
2018-05-27T02:57:33.021Z,72.18
2018-05-27T03:00:01.562Z,71.99
2018-05-27T03:02:30.069Z,71.13
2018-05-27T03:04:58.597Z,71.28
2018-05-27T03:07:27.124Z,72.37
2018-05-27T03:09:55.692Z,72.83
2018-05-27T03:12:24.189Z,72.90
2018-05-27T03:14:52.734Z,71.82
2018-05-27T03:17:21.281Z,70.64
2018-05-27T03:19:49.768Z,70.59
2018-05-27T03:22:18.256Z,70.14
2018-05-27T03:24:46.802Z,70.17
2018-05-27T03:27:15.307Z,70.31
2018-05-27T03:29:43.814Z,71.21
2018-05-27T03:32:12.322Z,72.03
2018-05-27T03:34:40.854Z,71.75
2018-05-27T03:37:09.348Z,71.86
2018-05-27T03:39:37.877Z,71.89
2018-05-27T03:42:06.413Z,71.73
2018-05-27T03:44:35.449Z,71.32
2018-05-27T03:47:04.033Z,70.64
2018-05-27T03:49:32.579Z,70.61
2018-05-27T03:52:01.053Z,70.37
2018-05-27T03:54:29.569Z,70.00
2018-05-27T03:56:58.076Z,69.83
2018-05-27T03:59:26.603Z,69.93
2018-05-27T04:01:55.113Z,69.60
2018-05-27T04:04:35.361Z,69.27
2018-05-27T04:10:06.726Z,68.55
2018-05-27T04:12:35.336Z,68.14
2018-05-27T04:15:03.857Z,67.95
2018-05-27T04:17:32.392Z,67.71
2018-05-27T04:20:00.893Z,68.40
2018-05-27T04:22:29.436Z,67.95
2018-05-27T04:24:57.910Z,68.26
2018-05-27T04:27:26.436Z,68.23
2018-05-27T04:29:54.936Z,67.84
2018-05-27T04:32:23.456Z,68.15
2018-05-27T04:34:51.984Z,68.76
2018-05-27T04:37:20.468Z,68.58
2018-05-27T04:39:49.009Z,68.15
2018-05-27T04:42:17.513Z,68.48
2018-05-27T04:44:46.004Z,69.21
2018-05-27T04:47:14.576Z,69.97
2018-05-27T04:49:43.104Z,68.16
2018-05-27T04:52:11.606Z,66.69
2018-05-27T04:54:40.152Z,64.27
2018-05-27T04:57:08.672Z,63.48
2018-05-27T04:59:37.157Z,62.79
2018-05-27T05:02:05.691Z,62.62
2018-05-27T05:04:34.228Z,62.93
2018-05-27T05:07:02.759Z,60.34
2018-05-27T05:09:31.265Z,59.81
2018-05-27T05:11:59.821Z,59.71
2018-05-27T05:14:28.308Z,59.34
2018-05-27T05:16:56.808Z,59.41
2018-05-27T05:19:25.315Z,58.59
2018-05-27T05:21:53.827Z,59.36
2018-05-27T05:24:22.406Z,58.28
2018-05-27T05:26:50.941Z,56.26
2018-05-27T05:29:19.472Z,55.57
2018-05-27T05:31:47.968Z,54.44
2018-05-27T05:34:16.508Z,54.22
2018-05-27T05:36:44.993Z,55.08
2018-05-27T05:39:13.480Z,54.20
2018-05-27T05:41:42.039Z,55.51
2018-05-27T05:44:10.529Z,53.71
2018-05-27T05:46:39.040Z,52.72
2018-05-27T05:49:07.517Z,52.68
2018-05-27T05:51:36.041Z,52.97
2018-05-27T05:54:04.537Z,51.68
2018-05-27T05:56:33.061Z,51.90
2018-05-27T05:59:01.528Z,51.33
2018-05-27T06:01:30.041Z,51.43
2018-05-27T06:03:58.528Z,51.13
2018-05-27T06:06:27.062Z,50.22
2018-05-27T06:08:55.599Z,49.61
2018-05-27T06:11:24.129Z,49.31
2018-05-27T06:13:52.611Z,49.61
2018-05-27T06:16:21.128Z,46.95
2018-05-27T06:18:49.653Z,46.36
2018-05-27T06:21:18.132Z,44.99
2018-05-27T06:23:46.657Z,46.07
2018-05-27T06:26:15.140Z,44.56
2018-05-27T06:28:43.625Z,44.97
2018-05-27T06:31:12.104Z,45.52
2018-05-27T06:33:40.634Z,45.69
2018-05-27T06:36:09.120Z,44.02
2018-05-27T06:38:37.689Z,43.76
2018-05-27T06:41:06.161Z,44.65
2018-05-27T06:43:34.669Z,44.26
2018-05-27T06:46:03.169Z,43.62
2018-05-27T06:48:31.649Z,43.75
2018-05-27T06:51:00.153Z,43.42
2018-05-27T06:53:28.628Z,44.88
2018-05-27T06:55:57.121Z,43.85
2018-05-27T06:58:25.577Z,42.91
2018-05-27T07:00:54.100Z,43.42
2018-05-27T07:03:22.551Z,43.50
2018-05-27T07:05:51.061Z,42.69
2018-05-27T07:08:19.572Z,44.22
2018-05-27T07:10:48.104Z,45.90
2018-05-27T07:13:16.608Z,45.29
2018-05-27T07:15:45.141Z,46.12
2018-05-27T07:18:13.625Z,48.34
2018-05-27T07:20:42.120Z,46.23
2018-05-27T07:23:10.626Z,46.16
2018-05-27T07:25:39.161Z,47.16
2018-05-27T07:28:07.659Z,44.87
2018-05-27T07:30:36.168Z,46.59
2018-05-27T07:33:04.667Z,44.83
2018-05-27T07:35:33.174Z,44.92
2018-05-27T07:38:01.670Z,45.41
2018-05-27T07:40:30.192Z,45.62
2018-05-27T07:42:58.681Z,44.24
2018-05-27T07:45:27.192Z,44.46
2018-05-27T07:47:55.673Z,43.02
2018-05-27T07:50:24.240Z,43.36
2018-05-27T07:52:52.760Z,43.29
2018-05-27T07:55:21.273Z,43.03
2018-05-27T07:57:49.789Z,40.43
2018-05-27T08:00:18.264Z,40.82
2018-05-27T08:02:46.756Z,40.27
2018-05-27T08:05:15.267Z,39.49
2018-05-27T08:07:43.788Z,39.68
2018-05-27T08:10:12.244Z,40.36
2018-05-27T08:12:40.772Z,38.74
2018-05-27T08:15:09.288Z,40.48
2018-05-27T08:17:37.769Z,40.23
2018-05-27T08:20:06.297Z,41.64
2018-05-27T08:22:34.777Z,40.04
2018-05-27T08:25:03.272Z,40.03
2018-05-27T08:27:31.794Z,40.33
2018-05-27T08:30:00.288Z,40.80
2018-05-27T08:32:28.745Z,38.50
2018-05-27T08:34:57.266Z,40.09
2018-05-27T08:37:25.744Z,39.76
2018-05-27T08:39:54.257Z,39.74
2018-05-27T08:42:22.732Z,39.93
2018-05-27T08:44:51.240Z,38.77
2018-05-27T08:47:19.744Z,38.12
2018-05-27T08:49:48.264Z,38.14
2018-05-27T08:52:16.760Z,37.17
2018-05-27T08:54:45.291Z,38.27
2018-05-27T08:57:13.762Z,38.96
2018-05-27T08:59:42.276Z,38.95
2018-05-27T09:02:10.725Z,36.80
2018-05-27T09:04:39.240Z,36.87
2018-05-27T09:07:07.718Z,37.13
2018-05-27T09:09:36.172Z,36.61
2018-05-27T09:12:04.672Z,37.23
2018-05-27T09:14:33.119Z,37.19
2018-05-27T09:17:01.634Z,36.86
2018-05-27T09:19:30.088Z,35.39
2018-05-27T09:21:58.579Z,35.93
2018-05-27T09:24:27.036Z,35.07
2018-05-27T09:26:55.519Z,36.57
2018-05-27T09:29:23.969Z,37.48
2018-05-27T09:31:52.456Z,35.33
2018-05-27T09:34:20.900Z,35.66
2018-05-27T09:36:49.400Z,36.63
2018-05-27T09:39:17.903Z,35.47
2018-05-27T09:41:46.388Z,36.60
2018-05-27T09:44:14.896Z,36.32
2018-05-27T09:46:43.413Z,36.02
2018-05-27T09:49:11.871Z,38.49
2018-05-27T09:51:40.373Z,34.86
2018-05-27T09:54:08.821Z,34.97
2018-05-27T09:56:37.273Z,34.79
2018-05-27T09:59:05.772Z,34.67
2018-05-27T10:01:34.232Z,34.23
2018-05-27T10:04:02.728Z,33.71
2018-05-27T10:06:31.240Z,34.49
2018-05-27T10:08:59.736Z,33.88
2018-05-27T10:11:28.232Z,34.02
2018-05-27T10:13:56.724Z,35.19
2018-05-27T10:16:25.208Z,32.82
2018-05-27T10:18:53.708Z,32.22
2018-05-27T10:21:22.159Z,33.22
2018-05-27T10:23:50.656Z,33.14
2018-05-27T10:26:19.109Z,31.78
2018-05-27T10:28:47.611Z,32.47
2018-05-27T10:31:16.096Z,31.56
2018-05-27T10:33:44.605Z,32.86
2018-05-27T10:36:13.084Z,33.63
2018-05-27T10:38:41.611Z,32.83
2018-05-27T10:41:10.104Z,33.07
2018-05-27T10:43:38.553Z,33.54
2018-05-27T10:46:07.043Z,33.39
2018-05-27T10:48:35.523Z,31.88
2018-05-27T10:51:03.981Z,33.26
2018-05-27T10:53:32.516Z,32.04
2018-05-27T10:56:00.992Z,32.22
2018-05-27T10:58:29.484Z,32.18
2018-05-27T11:00:57.940Z,32.61
2018-05-27T11:03:26.441Z,33.26
2018-05-27T11:05:54.977Z,32.14
2018-05-27T11:08:23.457Z,31.98
2018-05-27T11:10:51.918Z,32.05
2018-05-27T11:13:20.419Z,33.32
2018-05-27T11:15:49.069Z,33.17
2018-05-27T11:18:17.524Z,32.44
2018-05-27T11:20:46.083Z,32.73
2018-05-27T11:23:14.505Z,33.67
2018-05-27T11:25:42.996Z,32.70
2018-05-27T11:28:11.484Z,32.12
2018-05-27T11:30:39.992Z,32.44
2018-05-27T11:33:08.444Z,31.73
2018-05-27T11:35:36.939Z,32.19
2018-05-27T11:38:05.433Z,32.34
2018-05-27T11:40:33.888Z,32.58
2018-05-27T11:43:02.394Z,32.41
2018-05-27T11:45:30.920Z,32.88
2018-05-27T11:47:59.408Z,33.50
2018-05-27T11:50:27.933Z,32.94
2018-05-27T11:52:56.385Z,33.69
2018-05-27T11:55:24.860Z,33.26
2018-05-27T11:57:53.345Z,33.14
2018-05-27T12:00:21.796Z,33.54
2018-05-27T12:02:50.317Z,33.89
2018-05-27T12:05:18.768Z,33.22
2018-05-27T12:07:47.267Z,33.79
2018-05-27T12:10:15.716Z,33.88
2018-05-27T12:12:44.212Z,33.36
2018-05-27T12:15:12.665Z,34.02
2018-05-27T12:17:41.161Z,33.44
2018-05-27T12:20:09.697Z,32.30
2018-05-27T12:22:38.208Z,32.38
2018-05-27T12:25:06.729Z,32.24
2018-05-27T12:27:35.176Z,31.78
2018-05-27T12:30:03.739Z,32.30
2018-05-27T12:32:32.198Z,33.59
2018-05-27T12:35:00.720Z,33.51
2018-05-27T12:37:29.180Z,34.64
2018-05-27T12:39:57.662Z,34.34
2018-05-27T12:42:26.156Z,33.74
2018-05-27T12:44:54.668Z,33.46
2018-05-27T12:47:23.134Z,33.21
2018-05-27T12:49:51.646Z,33.17
2018-05-27T12:52:20.097Z,33.26
2018-05-27T12:54:48.555Z,33.04
2018-05-27T12:57:17.048Z,33.78
2018-05-27T12:59:45.503Z,33.05
2018-05-27T13:02:14.022Z,34.66
2018-05-27T13:04:42.529Z,35.22
2018-05-27T13:07:11.076Z,35.06
2018-05-27T13:09:39.564Z,34.66
2018-05-27T13:12:08.085Z,33.88
2018-05-27T13:14:36.569Z,34.01
2018-05-27T13:17:05.083Z,34.32
2018-05-27T13:19:33.684Z,34.19
2018-05-27T13:22:02.137Z,33.55
2018-05-27T13:24:30.680Z,33.44
2018-05-27T13:26:59.140Z,34.33
2018-05-27T13:29:27.651Z,34.01
2018-05-27T13:31:56.142Z,34.72
2018-05-27T13:34:24.652Z,33.51
2018-05-27T13:36:53.108Z,32.95
2018-05-27T13:39:21.599Z,32.23
2018-05-27T13:41:50.056Z,31.51
2018-05-27T13:44:18.541Z,31.96
2018-05-27T13:46:47.083Z,32.02
2018-05-27T13:49:15.584Z,32.95
2018-05-27T13:51:44.117Z,32.76
2018-05-27T13:54:12.620Z,31.99
2018-05-27T13:56:41.074Z,31.92
2018-05-27T13:59:09.532Z,32.19
2018-05-27T14:01:38.040Z,32.36
2018-05-27T14:04:06.562Z,32.68
2018-05-27T14:06:35.056Z,31.62
2018-05-27T14:09:03.710Z,31.20
2018-05-27T14:11:32.229Z,31.22
2018-05-27T14:14:00.721Z,31.47
2018-05-27T14:16:29.212Z,32.13
2018-05-27T14:18:57.724Z,32.21
2018-05-27T14:21:26.257Z,34.51
2018-05-27T14:23:54.716Z,34.39
2018-05-27T14:26:23.215Z,34.28
2018-05-27T14:28:51.724Z,35.71
2018-05-27T14:31:20.220Z,34.66
2018-05-27T14:33:48.712Z,41.45
2018-05-27T14:36:17.201Z,45.07
2018-05-27T14:38:45.777Z,46.16
2018-05-27T14:41:14.269Z,48.59
2018-05-27T14:43:42.774Z,50.25
2018-05-27T14:46:11.273Z,55.16
2018-05-27T14:48:39.779Z,48.01
2018-05-27T14:51:08.268Z,52.19
2018-05-27T14:53:36.740Z,50.29
2018-05-27T14:56:05.282Z,51.02
2018-05-27T14:58:33.782Z,53.25
2018-05-27T15:01:02.233Z,52.62
2018-05-27T15:03:30.724Z,54.65
2018-05-27T15:05:59.183Z,54.71
2018-05-27T15:08:27.673Z,54.45
2018-05-27T15:10:56.151Z,54.65
2018-05-27T15:13:24.647Z,54.99
2018-05-27T15:15:53.165Z,54.74
2018-05-27T15:18:21.658Z,56.42
2018-05-27T15:20:50.172Z,56.77
2018-05-27T15:23:18.629Z,54.72
2018-05-27T15:25:47.125Z,58.12
2018-05-27T15:28:15.600Z,55.64
2018-05-27T15:30:44.097Z,56.13
2018-05-27T15:33:12.581Z,54.76
2018-05-27T15:35:41.136Z,54.25
2018-05-27T15:38:09.599Z,55.46
2018-05-27T15:40:38.089Z,53.72
2018-05-27T15:43:06.544Z,53.82
2018-05-27T15:45:35.092Z,53.77
2018-05-27T15:48:03.556Z,53.15
2018-05-27T15:50:32.040Z,55.54
2018-05-27T15:53:00.577Z,54.01
2018-05-27T15:55:29.070Z,56.10
2018-05-27T15:57:57.555Z,54.54
2018-05-27T16:00:26.052Z,53.10
2018-05-27T16:02:54.549Z,54.83
2018-05-27T16:05:23.064Z,55.23
2018-05-27T16:07:51.509Z,55.12
2018-05-27T16:10:20.036Z,55.63
2018-05-27T16:12:48.524Z,54.94
2018-05-27T16:15:17.028Z,55.94
2018-05-27T16:17:45.516Z,55.87
2018-05-27T16:20:14.029Z,56.05
2018-05-27T16:22:42.508Z,56.30
2018-05-27T16:25:11.029Z,56.67
2018-05-27T16:27:39.521Z,57.39
2018-05-27T16:30:08.015Z,56.58
2018-05-27T16:32:36.504Z,57.37
2018-05-27T16:35:05.016Z,57.02
2018-05-27T16:37:33.511Z,57.16
2018-05-27T16:40:01.973Z,56.95
2018-05-27T16:42:30.489Z,57.88
2018-05-27T16:44:58.945Z,57.93
2018-05-27T16:47:27.478Z,58.22
2018-05-27T16:49:56.004Z,58.11
2018-05-27T16:52:24.456Z,58.17
2018-05-27T16:54:52.916Z,59.17
2018-05-27T16:57:21.477Z,58.66
2018-05-27T16:59:49.931Z,57.34
2018-05-27T17:02:18.429Z,58.40
2018-05-27T17:04:46.894Z,58.79
2018-05-27T17:07:15.408Z,59.15
2018-05-27T17:09:43.913Z,57.88
2018-05-27T17:12:12.397Z,58.99
2018-05-27T17:14:40.860Z,60.09
2018-05-27T17:17:09.349Z,58.77
2018-05-27T17:19:37.817Z,58.66
2018-05-27T17:22:06.322Z,58.75
2018-05-27T17:24:34.836Z,59.23
2018-05-27T17:27:03.355Z,59.05
2018-05-27T17:29:31.808Z,58.22
2018-05-27T17:32:00.284Z,59.09
2018-05-27T17:34:28.821Z,58.42
2018-05-27T17:36:57.368Z,58.50
2018-05-27T17:39:25.840Z,59.08
2018-05-27T17:41:54.324Z,59.48
2018-05-27T17:44:22.921Z,59.46
2018-05-27T17:46:51.413Z,59.16
2018-05-27T17:49:19.903Z,59.65
2018-05-27T17:51:48.368Z,59.96
2018-05-27T17:54:16.928Z,59.89
2018-05-27T17:56:45.408Z,60.25
2018-05-27T17:59:13.860Z,60.33
2018-05-27T18:01:42.364Z,60.25
2018-05-27T18:04:10.860Z,60.20
2018-05-27T18:06:39.420Z,61.09
2018-05-27T18:09:07.904Z,60.43
2018-05-27T18:11:36.436Z,60.80
2018-05-27T18:14:04.972Z,61.30
2018-05-27T18:16:33.424Z,60.85
2018-05-27T18:19:01.936Z,60.67
2018-05-27T18:21:30.390Z,60.82
2018-05-27T18:23:58.884Z,60.77
2018-05-27T18:26:27.349Z,60.92
2018-05-27T18:28:55.870Z,60.91
2018-05-27T18:31:24.325Z,60.74
2018-05-27T18:33:52.812Z,60.41
2018-05-27T18:36:21.265Z,60.62
2018-05-27T18:38:49.838Z,61.13
2018-05-27T18:41:18.302Z,61.72
2018-05-27T18:43:46.801Z,61.30
2018-05-27T18:46:15.324Z,61.79
2018-05-27T18:48:43.824Z,61.28
2018-05-27T18:51:12.308Z,61.26
2018-05-27T18:53:40.796Z,61.04
2018-05-27T18:56:09.261Z,61.04
2018-05-27T18:58:37.712Z,61.36
2018-05-27T19:01:06.250Z,60.94
2018-05-27T19:03:34.769Z,60.72
2018-05-27T19:06:03.220Z,61.15
2018-05-27T19:08:31.673Z,60.50
2018-05-27T19:11:00.124Z,60.44
2018-05-27T19:13:28.638Z,60.20
2018-05-27T19:15:57.164Z,60.33
2018-05-27T19:18:25.665Z,59.98
2018-05-27T19:20:54.173Z,60.18
2018-05-27T19:23:22.657Z,59.93
2018-05-27T19:25:51.115Z,59.94
2018-05-27T19:28:19.619Z,60.15
2018-05-27T19:30:48.073Z,59.58
2018-05-27T19:33:16.536Z,60.01
2018-05-27T19:35:45.028Z,60.28
2018-05-27T19:38:13.484Z,60.78
2018-05-27T19:40:41.982Z,61.34
2018-05-27T19:43:10.480Z,61.58
2018-05-27T19:45:38.945Z,61.19
2018-05-27T19:48:07.408Z,61.59
2018-05-27T19:50:35.892Z,61.14
2018-05-27T19:53:04.441Z,61.37
2018-05-27T19:55:32.896Z,61.08
2018-05-27T19:58:01.394Z,61.70
2018-05-27T20:00:29.859Z,61.38
2018-05-27T20:02:58.347Z,61.54
2018-05-27T20:05:26.849Z,61.76
2018-05-27T20:07:55.349Z,62.13
2018-05-27T20:10:23.818Z,61.73
2018-05-27T20:12:52.331Z,61.98
2018-05-27T20:15:20.796Z,62.01
2018-05-27T20:17:49.297Z,62.51
2018-05-27T20:20:17.806Z,62.76
2018-05-27T20:22:46.273Z,63.01
2018-05-27T20:25:14.784Z,63.32
2018-05-27T20:27:43.244Z,63.21
2018-05-27T20:30:11.759Z,63.30
2018-05-27T20:32:40.217Z,63.33
2018-05-27T20:35:08.745Z,63.67
2018-05-27T20:37:37.208Z,64.02
2018-05-27T20:40:05.715Z,64.33
2018-05-27T20:42:34.213Z,64.71
2018-05-27T20:45:02.751Z,64.52
2018-05-27T20:47:31.228Z,64.08
2018-05-27T20:49:59.785Z,64.25
2018-05-27T20:52:28.252Z,63.94
2018-05-27T20:54:56.757Z,63.66
2018-05-27T20:57:25.271Z,63.74
2018-05-27T20:59:53.756Z,63.40
2018-05-27T21:02:22.213Z,63.51
2018-05-27T21:04:50.708Z,63.35
2018-05-27T21:07:19.164Z,63.19
2018-05-27T21:09:47.705Z,63.50
2018-05-27T21:12:16.209Z,63.07
2018-05-27T21:14:44.721Z,63.54
2018-05-27T21:17:13.208Z,63.04
2018-05-27T21:19:41.664Z,63.02
2018-05-27T21:22:10.153Z,62.73
2018-05-27T21:24:38.608Z,62.60
2018-05-27T21:27:07.112Z,63.60
2018-05-27T21:29:35.575Z,63.86
2018-05-27T21:32:04.084Z,63.22
2018-05-27T21:34:32.577Z,63.08
2018-05-27T21:37:01.038Z,63.30
2018-05-27T21:39:29.540Z,63.38
2018-05-27T21:41:57.997Z,63.43
2018-05-27T21:44:26.496Z,63.36
2018-05-27T21:46:54.961Z,63.57
2018-05-27T21:49:23.456Z,63.59
2018-05-27T21:51:51.918Z,63.25
2018-05-27T21:54:20.433Z,63.15
2018-05-27T21:56:48.906Z,62.67
2018-05-27T21:59:17.412Z,62.49
2018-05-27T22:01:45.901Z,62.58
2018-05-27T22:04:14.394Z,62.34
2018-05-27T22:06:42.896Z,62.53
2018-05-27T22:09:11.364Z,62.95
2018-05-27T22:11:39.872Z,62.89
2018-05-27T22:14:08.380Z,62.03
2018-05-27T22:16:36.870Z,62.38
2018-05-27T22:19:05.342Z,62.30
2018-05-27T22:21:33.844Z,61.96
2018-05-27T22:24:02.305Z,61.92
2018-05-27T22:26:30.810Z,61.50
2018-05-27T22:28:59.299Z,61.30
2018-05-27T22:31:27.752Z,60.98
2018-05-27T22:33:56.245Z,60.85
2018-05-27T22:36:24.770Z,60.47
2018-05-27T22:38:53.229Z,60.62
2018-05-27T22:41:21.728Z,60.68
2018-05-27T22:43:50.179Z,60.88
2018-05-27T22:46:18.672Z,61.15
2018-05-27T22:48:47.169Z,60.65
2018-05-27T22:51:15.630Z,60.44
2018-05-27T22:53:44.120Z,60.67
2018-05-27T22:56:12.617Z,61.24
2018-05-27T22:58:41.114Z,61.65
2018-05-27T23:01:09.632Z,63.65
2018-05-27T23:03:38.183Z,63.84
2018-05-27T23:06:06.730Z,63.17
2018-05-27T23:08:35.270Z,63.90
2018-05-27T23:11:03.778Z,64.49
2018-05-27T23:13:32.344Z,63.89
2018-05-27T23:16:00.837Z,65.51
2018-05-27T23:18:29.349Z,66.63
2018-05-27T23:20:57.865Z,65.16
2018-05-27T23:23:26.384Z,63.43
2018-05-27T23:25:54.904Z,62.97
2018-05-27T23:28:23.375Z,62.53
2018-05-27T23:30:51.894Z,61.70
2018-05-27T23:33:20.370Z,61.99
2018-05-27T23:35:48.912Z,62.68
2018-05-27T23:38:17.369Z,62.70
2018-05-27T23:40:45.857Z,65.07
2018-05-27T23:43:14.377Z,63.49
2018-05-27T23:45:42.849Z,62.86
2018-05-27T23:48:11.361Z,63.00
2018-05-27T23:50:39.889Z,63.90
2018-05-27T23:53:08.372Z,64.14
2018-05-27T23:55:36.876Z,64.86
2018-05-27T23:58:05.408Z,65.63
